Time;durP1;ratioP1;P1;durP2;ratioP2;P2;SDS_P1;SDS_P2;PMS_P1;PMS_P2;Temp;Humidity;BMP_temperature;BMP_pressure;BME280_temperature;BME280_humidity;BME280_pressure;Samples;Min_cycle;Max_cycle;Signal;HPM_P1;HPM_P2
2023/12/28 00:01:37;;;;;;;21.42;15.30;;;;;;;7.56;100.00;99480.03;5097300;28;20043;-72
2023/12/28 00:04:03;;;;;;;20.92;14.40;;;;;;;7.43;100.00;99436.06;5081352;28;20149;-72
2023/12/28 00:06:28;;;;;;;21.30;14.75;;;;;;;7.65;100.00;99476.81;5079255;28;20775;-71
2023/12/28 00:08:54;;;;;;;20.92;14.75;;;;;;;7.63;100.00;99481.28;5081263;28;20368;-72
2023/12/28 00:11:21;;;;;;;19.45;14.95;;;;;;;7.58;100.00;99475.59;5099355;28;20031;-70
2023/12/28 00:13:49;;;;;;;19.70;13.80;;;;;;;7.57;100.00;99475.69;5091518;28;20020;-71
2023/12/28 00:16:17;;;;;;;22.48;14.55;;;;;;;7.51;100.00;99480.34;5079665;28;20039;-71
2023/12/28 00:18:42;;;;;;;21.30;14.82;;;;;;;7.49;100.00;99474.44;5082998;28;20062;-71
2023/12/28 00:21:10;;;;;;;20.10;14.77;;;;;;;7.59;100.00;99463.47;5100641;28;20107;-70
2023/12/28 00:23:35;;;;;;;20.25;14.23;;;;;;;7.63;100.00;99463.16;5078933;28;20063;-70
2023/12/28 00:26:01;;;;;;;20.08;13.80;;;;;;;7.46;100.00;99429.84;5095244;28;20028;-68
2023/12/28 00:28:26;;;;;;;18.55;13.75;;;;;;;7.79;100.00;99459.50;5079393;28;20746;-70
2023/12/28 00:30:51;;;;;;;17.88;12.98;;;;;;;7.86;100.00;99460.75;5080413;28;20115;-70
2023/12/28 00:33:19;;;;;;;18.23;12.50;;;;;;;7.98;100.00;99474.59;5079737;28;20028;-70
2023/12/28 00:35:44;;;;;;;19.85;12.75;;;;;;;7.99;100.00;99460.72;5083577;28;20119;-69
2023/12/28 00:38:10;;;;;;;17.58;12.90;;;;;;;8.01;100.00;99471.78;5081538;28;20030;-70
2023/12/28 00:40:35;;;;;;;17.40;12.95;;;;;;;8.01;100.00;99467.47;5080241;28;20055;-71
2023/12/28 00:43:03;;;;;;;16.92;12.35;;;;;;;8.05;100.00;99461.13;5100590;28;20028;-71
2023/12/28 00:45:28;;;;;;;16.23;11.98;;;;;;;7.98;100.00;99462.47;5100825;28;20024;-70
2023/12/28 00:47:56;;;;;;;21.20;13.18;;;;;;;8.03;100.00;99464.72;5082750;28;20089;-69
2023/12/28 00:50:22;;;;;;;17.00;11.68;;;;;;;8.08;100.00;99465.25;5098800;28;20028;-70
2023/12/28 00:52:47;;;;;;;16.95;12.95;;;;;;;7.89;100.00;99437.22;5079465;28;20032;-71
2023/12/28 00:55:12;;;;;;;15.93;12.65;;;;;;;7.99;100.00;99460.72;5094671;28;20037;-71
2023/12/28 00:57:38;;;;;;;20.13;12.13;;;;;;;7.95;100.00;99456.69;5082667;28;20462;-71
2023/12/28 01:00:04;;;;;;;18.00;11.25;;;;;;;7.72;100.00;99411.66;5100388;28;20134;-71
2023/12/28 01:02:29;;;;;;;18.42;11.63;;;;;;;7.80;100.00;99456.81;5100330;28;20374;-69
2023/12/28 01:04:57;;;;;;;15.45;10.30;;;;;;;7.74;100.00;99467.59;5099770;28;20038;-69
2023/12/28 01:07:25;;;;;;;14.98;10.18;;;;;;;7.54;100.00;99442.25;5098215;28;20020;-71
2023/12/28 01:09:50;;;;;;;15.73;11.02;;;;;;;7.72;100.00;99460.88;5099532;28;20039;-70
2023/12/28 01:12:19;;;;;;;17.67;10.95;;;;;;;7.87;100.00;99459.81;5074711;28;20028;-71
2023/12/28 01:14:46;;;;;;;13.95;10.15;;;;;;;7.91;100.00;99457.84;5077629;28;20790;-71
2023/12/28 01:17:14;;;;;;;12.93;9.95;;;;;;;7.96;100.00;99451.41;5077838;28;20065;-70
2023/12/28 01:19:40;;;;;;;13.48;10.45;;;;;;;8.06;100.00;99449.81;5083223;28;20049;-71
2023/12/28 01:22:05;;;;;;;13.82;9.90;;;;;;;8.11;100.00;99466.81;5091808;28;20764;-71
2023/12/28 01:24:31;;;;;;;17.88;10.40;;;;;;;8.11;100.00;99465.03;5092878;28;20777;-70
2023/12/28 01:26:56;;;;;;;13.40;9.25;;;;;;;8.13;100.00;99463.16;5090670;28;20024;-71
2023/12/28 01:29:24;;;;;;;12.50;9.48;;;;;;;7.96;100.00;99459.19;5090487;28;20054;-71
2023/12/28 01:31:52;;;;;;;15.40;9.50;;;;;;;7.88;100.00;99469.22;5078906;28;20797;-71
2023/12/28 01:34:17;;;;;;;13.90;9.52;;;;;;;7.76;100.00;99459.72;5088802;28;20375;-70
2023/12/28 01:36:45;;;;;;;12.20;8.85;;;;;;;7.76;100.00;99463.16;5075705;28;20020;-71
2023/12/28 01:39:15;;;;;;;14.27;10.23;;;;;;;7.74;100.00;99466.75;5079535;28;20028;-70
2023/12/28 01:41:40;;;;;;;13.90;9.38;;;;;;;7.83;100.00;99460.94;5080310;28;20097;-71
2023/12/28 01:44:08;;;;;;;13.35;9.07;;;;;;;7.81;100.00;99455.91;5075229;28;20031;-70
2023/12/28 01:46:34;;;;;;;15.80;9.38;;;;;;;7.86;100.00;99455.56;5091885;28;20094;-72
2023/12/28 01:48:59;;;;;;;13.55;8.82;;;;;;;7.84;100.00;99454.84;5087743;28;20954;-72
2023/12/28 01:51:25;;;;;;;12.40;7.55;;;;;;;7.81;100.00;99450.72;5070292;28;20024;-71
2023/12/28 01:53:53;;;;;;;13.80;8.10;;;;;;;7.96;100.00;99442.78;5073556;28;20771;-72
2023/12/28 01:56:19;;;;;;;11.60;7.78;;;;;;;8.13;100.00;99451.97;5075881;28;20028;-71
2023/12/28 01:58:46;;;;;;;13.57;7.32;;;;;;;8.16;99.49;99457.78;5093788;28;20863;-70
2023/12/28 02:01:11;;;;;;;12.68;7.20;;;;;;;8.16;100.00;99456.94;5079767;28;20024;-71
2023/12/28 02:03:37;;;;;;;10.88;7.13;;;;;;;8.08;100.00;99447.94;5089248;28;20051;-70
2023/12/28 02:06:04;;;;;;;13.00;8.10;;;;;;;8.14;100.00;99444.09;5089348;28;20058;-72
2023/12/28 02:08:30;;;;;;;14.43;8.95;;;;;;;8.11;100.00;99452.09;5089245;28;20051;-70
2023/12/28 02:10:58;;;;;;;13.75;9.35;;;;;;;8.00;100.00;99424.34;5072247;28;20103;-71
2023/12/28 02:13:24;;;;;;;13.60;8.73;;;;;;;8.22;100.00;99452.16;5086148;28;20493;-71
2023/12/28 02:15:57;;;;;;;12.93;8.75;;;;;;;8.28;100.00;99451.69;5068173;28;20160;-71
2023/12/28 02:18:29;;;;;;;13.15;8.60;;;;;;;8.06;100.00;99416.13;5090473;28;20073;-72
2023/12/28 02:20:59;;;;;;;13.00;8.70;;;;;;;8.32;100.00;99454.09;5079019;28;20015;-69
2023/12/28 02:23:24;;;;;;;15.23;9.40;;;;;;;8.17;100.00;99461.19;5089627;28;20435;-70
2023/12/28 02:25:50;;;;;;;14.20;9.05;;;;;;;8.06;100.00;99454.16;5075465;28;20035;-70
2023/12/28 02:28:17;;;;;;;13.60;9.32;;;;;;;8.05;100.00;99455.94;5070525;28;20024;-70
2023/12/28 02:30:42;;;;;;;13.20;8.00;;;;;;;8.01;100.00;99457.09;5066955;28;20036;-68
2023/12/28 02:33:18;;;;;;;12.68;8.65;;;;;;;7.68;100.00;99406.72;5094341;28;20035;-70
2023/12/28 02:36:07;;;;;;;12.95;8.70;;;;;;;7.96;100.00;99447.97;5092725;28;20024;-70
2023/12/28 02:38:39;;;;;;;12.13;8.32;;;;;;;7.97;100.00;99445.28;5095262;28;20029;-72
2023/12/28 02:41:04;;;;;;;12.32;7.88;;;;;;;7.67;100.00;99405.06;5084576;28;20020;-71
2023/12/28 02:43:33;;;;;;;11.13;8.02;;;;;;;8.02;100.00;99450.97;5069668;28;20039;-70
2023/12/28 02:45:58;;;;;;;13.25;8.32;;;;;;;8.11;100.00;99452.09;5076978;28;20517;-71
2023/12/28 02:48:25;;;;;;;12.27;8.18;;;;;;;7.98;100.00;99448.72;5079072;28;20051;-71
2023/12/28 02:50:53;;;;;;;14.38;8.38;;;;;;;8.09;100.00;99454.78;5076784;28;20739;-70
2023/12/28 02:53:21;;;;;;;11.38;8.35;;;;;;;7.92;100.00;99434.41;5071087;28;20035;-69
2023/12/28 02:55:46;;;;;;;11.18;8.18;;;;;;;8.09;100.00;99449.59;5069748;28;20892;-71
2023/12/28 02:58:11;;;;;;;11.88;8.13;;;;;;;8.18;100.00;99444.72;5089845;28;20111;-71
2023/12/28 03:00:39;;;;;;;11.98;7.68;;;;;;;8.20;100.00;99443.66;5089158;28;20045;-72
2023/12/28 03:03:04;;;;;;;13.85;8.43;;;;;;;8.14;100.00;99444.09;5090813;28;20034;-72
2023/12/28 03:05:30;;;;;;;14.55;8.82;;;;;;;7.87;100.00;99445.09;5095709;28;20024;-71
2023/12/28 03:07:58;;;;;;;13.75;8.32;;;;;;;7.93;100.00;99446.44;5073966;28;20773;-72
2023/12/28 03:10:26;;;;;;;13.07;7.80;;;;;;;7.86;100.00;99434.84;5094256;28;20075;-72
2023/12/28 03:12:51;;;;;;;13.52;8.30;;;;;;;7.82;100.00;99431.63;5077202;28;20360;-70
2023/12/28 03:15:16;;;;;;;11.10;7.50;;;;;;;7.48;100.00;99378.78;5078813;28;20564;-72
2023/12/28 03:17:42;;;;;;;10.73;7.28;;;;;;;7.87;100.00;99431.34;5085647;28;20067;-71
2023/12/28 03:20:09;;;;;;;11.32;7.60;;;;;;;7.87;100.00;99423.56;5091851;28;20036;-71
2023/12/28 03:22:34;;;;;;;11.75;7.15;;;;;;;7.88;100.00;99422.63;5073592;28;20036;-71
2023/12/28 03:25:03;;;;;;;13.27;7.82;;;;;;;7.78;100.00;99413.84;5093999;28;20422;-72
2023/12/28 03:27:35;;;;;;;12.80;7.60;;;;;;;7.73;100.00;99419.34;5098997;28;20059;-71
2023/12/28 03:30:01;;;;;;;12.45;7.80;;;;;;;7.79;100.00;99423.25;5071497;28;20634;-71
2023/12/28 03:32:31;;;;;;;13.73;8.45;;;;;;;7.80;100.00;99412.81;5069007;28;20035;-71
2023/12/28 03:34:56;;;;;;;13.35;8.25;;;;;;;7.75;100.00;99409.69;5094118;28;20020;-69
2023/12/28 03:37:25;;;;;;;12.32;8.05;;;;;;;7.48;100.00;99371.03;5094346;28;20501;-71
2023/12/28 03:39:52;;;;;;;11.73;7.97;;;;;;;7.35;100.00;99355.53;5093908;28;20027;-70
2023/12/28 03:42:18;;;;;;;12.43;7.90;;;;;;;7.70;100.00;99409.19;5076510;28;20027;-71
2023/12/28 03:44:45;;;;;;;14.07;8.05;;;;;;;7.79;100.00;99405.97;5079483;28;20031;-70
2023/12/28 03:47:11;;;;;;;12.13;7.70;;;;;;;7.69;100.00;99410.97;5090103;28;20086;-69
2023/12/28 03:49:39;;;;;;;13.45;7.40;;;;;;;7.64;100.00;99409.63;5089701;28;20679;-72
2023/12/28 03:52:05;;;;;;;13.35;7.68;;;;;;;7.69;100.00;99410.97;5088325;28;20032;-71
2023/12/28 03:54:32;;;;;;;10.63;6.40;;;;;;;7.70;100.00;99391.06;5098427;28;20027;-71
2023/12/28 03:57:00;;;;;;;15.05;7.15;;;;;;;7.73;100.00;99390.88;5088700;28;20118;-70
2023/12/28 03:59:31;;;;;;;9.57;5.65;;;;;;;7.79;100.00;99384.44;5077843;28;20905;-71
2023/12/28 04:01:58;;;;;;;10.82;7.07;;;;;;;7.81;100.00;99379.97;5077097;28;20054;-71
2023/12/28 04:04:24;;;;;;;10.15;6.07;;;;;;;7.83;100.00;99386.72;5087250;28;20477;-71
2023/12/28 04:06:51;;;;;;;13.45;7.07;;;;;;;7.87;100.00;99390.72;5072331;28;20486;-69
2023/12/28 04:09:17;;;;;;;12.55;7.15;;;;;;;7.80;100.00;99388.69;5085529;28;20027;-70
2023/12/28 04:11:45;;;;;;;12.07;6.40;;;;;;;7.76;100.00;99389.81;5079092;28;20502;-66
2023/12/28 04:14:15;;;;;;;10.80;6.72;;;;;;;7.83;100.00;99388.44;5095533;28;20027;-73
2023/12/28 04:16:43;;;;;;;10.70;7.20;;;;;;;7.78;100.00;99386.19;5077775;28;20114;-71
2023/12/28 04:19:08;;;;;;;10.73;7.57;;;;;;;7.75;100.00;99388.16;5088849;28;20111;-71
2023/12/28 04:21:36;;;;;;;11.27;6.60;;;;;;;7.70;100.00;99391.91;5075488;28;20476;-71
2023/12/28 04:24:02;;;;;;;9.93;5.68;;;;;;;7.68;100.00;99385.19;5097035;28;20406;-70
2023/12/28 04:26:27;;;;;;;10.02;6.28;;;;;;;7.60;100.00;99352.06;5075870;28;20032;-71
2023/12/28 04:28:52;;;;;;;9.70;6.22;;;;;;;7.76;100.00;99402.75;5089509;28;20622;-70
2023/12/28 04:31:18;;;;;;;9.25;5.75;;;;;;;7.50;100.00;99338.09;5074923;28;20455;-71
2023/12/28 04:33:43;;;;;;;11.05;5.85;;;;;;;7.57;100.00;99352.28;5077339;28;20080;-71
2023/12/28 04:36:18;;;;;;;10.48;5.97;;;;;;;7.95;100.00;99404.88;5081581;28;20020;-70
2023/12/28 04:38:46;;;;;;;10.00;6.35;;;;;;;7.87;100.00;99410.63;5084203;28;20024;-71
2023/12/28 04:41:14;;;;;;;10.15;6.50;;;;;;;7.80;100.00;99410.22;5090338;28;20027;-70
2023/12/28 04:43:39;;;;;;;10.35;6.40;;;;;;;7.78;100.00;99398.31;5075980;28;20027;-70
2023/12/28 04:46:05;;;;;;;9.82;5.68;;;;;;;7.77;100.00;99405.25;5099138;28;20042;-71
2023/12/28 04:48:33;;;;;;;9.90;6.28;;;;;;;7.87;100.00;99393.31;5070521;28;20032;-70
2023/12/28 04:50:58;;;;;;;11.57;5.95;;;;;;;7.85;100.00;99405.53;5094860;28;20039;-71
2023/12/28 04:53:26;;;;;;;8.23;5.50;;;;;;;7.90;100.00;99407.78;5077442;28;20028;-70
2023/12/28 04:55:51;;;;;;;9.38;5.70;;;;;;;7.87;100.00;99402.84;5076549;28;20063;-71
2023/12/28 04:58:17;;;;;;;10.15;5.65;;;;;;;7.85;100.00;99409.91;5080891;28;20028;-71
2023/12/28 05:00:42;;;;;;;10.02;4.82;;;;;;;7.97;98.51;99403.03;5074642;28;20020;-71
2023/12/28 05:03:08;;;;;;;9.93;4.25;;;;;;;8.05;98.78;99409.31;5078345;28;20035;-70
2023/12/28 05:05:33;;;;;;;7.63;4.70;;;;;;;8.02;97.49;99408.72;5085921;28;20741;-69
2023/12/28 05:07:59;;;;;;;9.60;4.63;;;;;;;8.13;97.13;99415.72;5085399;28;20037;-70
2023/12/28 05:10:24;;;;;;;8.70;5.30;;;;;;;8.15;97.19;99411.25;5096399;28;20088;-71
2023/12/28 05:12:52;;;;;;;9.93;5.03;;;;;;;8.12;97.33;99422.63;5075839;28;20032;-69
2023/12/28 05:15:19;;;;;;;8.85;4.35;;;;;;;8.06;97.05;99415.31;5096782;28;20019;-69
2023/12/28 05:17:45;;;;;;;7.75;4.55;;;;;;;8.08;96.17;99416.03;5089675;28;20039;-72
2023/12/28 05:20:10;;;;;;;7.93;4.63;;;;;;;8.21;94.40;99416.81;5080060;28;20781;-71
2023/12/28 05:22:36;;;;;;;9.98;4.20;;;;;;;8.26;92.99;99425.06;5090965;28;20402;-69
2023/12/28 05:25:01;;;;;;;9.13;4.57;;;;;;;8.18;92.16;99409.25;5097480;28;20020;-71
2023/12/28 05:27:26;;;;;;;8.27;4.57;;;;;;;7.95;92.66;99379.81;5073392;28;20073;-71
2023/12/28 05:29:54;;;;;;;6.88;4.20;;;;;;;8.32;91.82;99410.84;5080183;28;20031;-71
2023/12/28 05:32:20;;;;;;;9.32;4.38;;;;;;;8.35;91.02;99399.44;5090670;28;20538;-70
2023/12/28 05:34:45;;;;;;;6.28;3.60;;;;;;;8.46;91.06;99415.06;5077422;27;20123;-70
2023/12/28 05:37:10;;;;;;;8.43;4.18;;;;;;;8.39;90.89;99401.69;5094191;28;20051;-71
2023/12/28 05:39:38;;;;;;;7.10;4.05;;;;;;;8.38;90.18;99404.44;5087951;28;20054;-71
2023/12/28 05:42:03;;;;;;;9.90;4.50;;;;;;;8.42;91.29;99406.69;5093909;28;20023;-70
2023/12/28 05:44:31;;;;;;;7.60;3.60;;;;;;;8.42;91.03;99406.69;5085808;28;20050;-70
2023/12/28 05:46:57;;;;;;;11.25;3.97;;;;;;;8.50;89.62;99413.09;5092156;28;20691;-69
2023/12/28 05:49:22;;;;;;;10.20;3.47;;;;;;;8.52;89.62;99396.47;5076872;28;20118;-68
2023/12/28 05:51:48;;;;;;;6.97;3.78;;;;;;;8.45;91.04;99411.66;5075460;28;20158;-69
2023/12/28 05:54:15;;;;;;;10.13;4.55;;;;;;;8.36;93.04;99407.13;5075667;28;20132;-71
2023/12/28 05:56:41;;;;;;;8.27;4.45;;;;;;;8.26;96.61;99408.72;5095465;28;20084;-71
2023/12/28 05:59:11;;;;;;;10.30;5.78;;;;;;;8.16;97.39;99415.47;5091763;28;21575;-72
2023/12/28 06:01:43;;;;;;;9.95;4.90;;;;;;;8.13;98.00;99421.72;5072411;28;20024;-71
2023/12/28 06:04:09;;;;;;;9.98;5.05;;;;;;;8.05;98.36;99413.69;5072370;28;20140;-71
2023/12/28 06:06:36;;;;;;;8.18;4.38;;;;;;;8.08;95.58;99405.66;5073619;28;20024;-70
2023/12/28 06:09:03;;;;;;;8.90;4.85;;;;;;;8.08;96.20;99396.13;5080776;28;20043;-71
2023/12/28 06:11:28;;;;;;;9.65;5.30;;;;;;;7.94;97.69;99377.31;5088332;28;20032;-71
2023/12/28 06:13:56;;;;;;;9.70;5.35;;;;;;;8.21;97.14;99423.75;5080652;28;20028;-71
2023/12/28 06:16:25;;;;;;;6.45;4.03;;;;;;;8.21;93.47;99405.63;5069096;28;20104;-71
2023/12/28 06:18:50;;;;;;;8.80;3.88;;;;;;;8.36;91.87;99414.03;5067792;28;20135;-72
2023/12/28 06:21:16;;;;;;;6.88;3.53;;;;;;;8.40;90.46;99405.94;5084999;28;20132;-70
2023/12/28 06:23:41;;;;;;;10.38;4.13;;;;;;;8.46;90.33;99415.06;5083272;28;20406;-71
2023/12/28 06:26:09;;;;;;;6.47;3.33;;;;;;;8.45;88.69;99409.06;5084332;28;20146;-71
2023/12/28 06:28:35;;;;;;;8.43;4.13;;;;;;;8.56;88.42;99410.88;5085124;28;20486;-71
2023/12/28 06:31:05;;;;;;;6.93;3.67;;;;;;;8.67;87.99;99417.88;5088034;28;20215;-70
2023/12/28 06:33:33;;;;;;;8.07;3.67;;;;;;;8.63;88.30;99412.09;5090846;28;20137;-72
2023/12/28 06:36:04;;;;;;;8.80;4.10;;;;;;;8.36;89.15;99378.63;5068711;28;20024;-70
2023/12/28 06:38:31;;;;;;;8.35;4.32;;;;;;;8.50;93.47;99418.28;5069199;28;20027;-71
2023/12/28 06:40:57;;;;;;;9.13;5.25;;;;;;;8.35;99.54;99412.41;5089502;28;20030;-71
2023/12/28 06:43:22;;;;;;;11.20;5.78;;;;;;;8.00;99.75;99372.56;5091926;28;20738;-71
2023/12/28 06:45:47;;;;;;;10.35;5.90;;;;;;;8.31;100.00;99426.53;5072505;28;20172;-70
2023/12/28 06:48:15;;;;;;;8.77;5.97;;;;;;;8.19;100.00;99421.25;5085835;28;20047;-70
2023/12/28 06:50:43;;;;;;;10.57;6.50;;;;;;;7.94;100.00;99398.91;5094054;28;20061;-71
2023/12/28 06:53:10;;;;;;;12.65;6.47;;;;;;;8.01;100.00;99428.59;5087801;28;20585;-72
2023/12/28 06:55:36;;;;;;;9.45;5.93;;;;;;;8.00;100.00;99416.56;5087383;28;20032;-69
2023/12/28 06:58:07;;;;;;;10.15;5.78;;;;;;;8.04;100.00;99417.19;5072704;28;20109;-71
2023/12/28 07:00:32;;;;;;;11.68;5.63;;;;;;;8.05;99.65;99424.03;5079363;28;20249;-69
2023/12/28 07:03:00;;;;;;;9.50;5.55;;;;;;;8.07;100.00;99415.22;5090345;28;20035;-70
2023/12/28 07:05:25;;;;;;;8.55;4.85;;;;;;;8.02;100.00;99404.34;5086491;28;20028;-72
2023/12/28 07:07:51;;;;;;;9.98;5.60;;;;;;;8.08;100.00;99408.25;5075653;28;20990;-72
2023/12/28 07:10:16;;;;;;;9.82;5.88;;;;;;;7.78;100.00;99365.47;5073904;28;20027;-70
2023/12/28 07:12:41;;;;;;;10.07;5.82;;;;;;;7.89;100.00;99375.91;5081828;28;20027;-71
2023/12/28 07:15:09;;;;;;;9.75;5.63;;;;;;;8.05;100.00;99411.91;5083790;28;20667;-71
2023/12/28 07:17:35;;;;;;;9.68;6.10;;;;;;;8.02;100.00;99412.13;5084086;28;20111;-69
2023/12/28 07:20:00;;;;;;;9.82;5.60;;;;;;;7.99;100.00;99427.03;5089833;28;20035;-71
2023/12/28 07:22:25;;;;;;;10.90;6.00;;;;;;;7.97;99.43;99423.72;5092787;28;20024;-70
2023/12/28 07:24:51;;;;;;;10.05;5.47;;;;;;;8.05;98.64;99431.81;5078075;28;20035;-71
2023/12/28 07:27:19;;;;;;;8.90;5.55;;;;;;;8.10;98.31;99445.25;5092763;28;20431;-71
2023/12/28 07:29:44;;;;;;;8.38;5.45;;;;;;;8.02;98.48;99439.78;5088302;28;20063;-71
2023/12/28 07:32:10;;;;;;;9.55;5.65;;;;;;;7.98;97.75;99418.44;5090076;28;20399;-71
2023/12/28 07:34:35;;;;;;;9.73;5.00;;;;;;;8.18;97.28;99448.13;5079984;28;20027;-70
2023/12/28 07:37:04;;;;;;;8.27;4.63;;;;;;;8.24;96.13;99447.69;5086546;28;20023;-70
2023/12/28 07:39:31;;;;;;;11.23;4.55;;;;;;;8.31;92.42;99447.25;5080380;28;20966;-69
2023/12/28 07:41:57;;;;;;;7.93;4.13;;;;;;;8.38;91.13;99435.53;5075231;28;20028;-70
2023/12/28 07:44:22;;;;;;;8.48;3.78;;;;;;;8.46;88.46;99430.63;5086347;28;20406;-71
2023/12/28 07:46:50;;;;;;;9.05;4.00;;;;;;;8.52;88.59;99442.31;5075603;28;20058;-71
2023/12/28 07:49:15;;;;;;;7.78;4.10;;;;;;;8.63;88.87;99450.13;5076557;28;20088;-71
2023/12/28 07:51:41;;;;;;;9.07;4.70;;;;;;;8.61;88.81;99454.59;5089485;28;20841;-68
2023/12/28 07:54:06;;;;;;;7.53;4.43;;;;;;;8.42;90.90;99422.25;5073794;28;20035;-70
2023/12/28 07:56:31;;;;;;;9.00;4.50;;;;;;;8.71;89.49;99458.19;5079237;28;20042;-70
2023/12/28 07:58:57;;;;;;;7.82;4.63;;;;;;;8.69;91.45;99461.81;5092531;28;20028;-70
2023/12/28 08:01:22;;;;;;;8.13;4.72;;;;;;;8.69;92.28;99457.47;5069332;28;20032;-71
2023/12/28 08:03:48;;;;;;;8.73;5.10;;;;;;;8.65;93.24;99459.47;5071391;28;20602;-72
2023/12/28 08:06:16;;;;;;;8.45;4.55;;;;;;;8.66;91.01;99471.47;5092338;28;20122;-71
2023/12/28 08:08:41;;;;;;;7.10;4.10;;;;;;;8.66;88.86;99468.06;5078467;28;20063;-69
2023/12/28 08:11:06;;;;;;;8.60;4.95;;;;;;;8.60;92.46;99466.75;5079001;28;20024;-70
2023/12/28 08:13:36;;;;;;;9.50;4.90;;;;;;;8.57;90.79;99476.50;5093488;28;20031;-69
2023/12/28 08:16:05;;;;;;;7.05;4.50;;;;;;;8.59;91.65;99464.25;5074076;28;20034;-71
2023/12/28 08:18:32;;;;;;;7.53;4.35;;;;;;;8.62;90.73;99464.03;5065765;28;20067;-70
2023/12/28 08:21:00;;;;;;;7.53;4.07;;;;;;;8.28;90.39;99407.66;5092783;28;20046;-71
2023/12/28 08:23:25;;;;;;;8.25;4.22;;;;;;;8.45;91.60;99436.72;5106094;27;20067;-69
2023/12/28 08:25:56;;;;;;;7.40;3.65;;;;;;;8.55;92.26;99453.28;5093479;28;20156;-71
2023/12/28 08:28:23;;;;;;;8.77;4.20;;;;;;;8.56;91.44;99448.91;5083776;28;20043;-71
2023/12/28 08:30:51;;;;;;;7.90;3.78;;;;;;;8.66;88.39;99447.31;5070414;28;20036;-71
2023/12/28 08:33:19;;;;;;;8.25;4.18;;;;;;;8.65;91.02;99450.84;5071878;28;20035;-66
2023/12/28 08:35:44;;;;;;;8.63;3.53;;;;;;;8.50;89.32;99410.50;5069783;28;20085;-67
2023/12/28 08:38:12;;;;;;;7.90;3.42;;;;;;;8.72;87.38;99451.22;5081573;28;20032;-66
2023/12/28 08:40:37;;;;;;;6.00;3.47;;;;;;;8.76;87.95;99453.50;5077308;28;20119;-67
2023/12/28 08:43:03;;;;;;;8.27;4.35;;;;;;;8.81;88.93;99469.53;5082179;28;20072;-67
2023/12/28 08:45:28;;;;;;;7.90;4.80;;;;;;;8.90;90.91;99483.59;5062826;28;20644;-68
2023/12/28 08:47:54;;;;;;;9.88;4.00;;;;;;;8.91;88.96;99500.81;5080870;28;20697;-67
2023/12/28 08:50:19;;;;;;;8.63;3.80;;;;;;;8.94;87.15;99508.34;5063438;28;20019;-67
2023/12/28 08:52:45;;;;;;;9.05;4.03;;;;;;;8.82;86.97;99471.19;5067850;28;20546;-68
2023/12/28 08:55:10;;;;;;;7.40;4.00;;;;;;;9.04;87.24;99493.78;5080372;28;20133;-68
2023/12/28 08:57:35;;;;;;;9.68;4.70;;;;;;;9.09;87.54;99492.59;5085658;28;20027;-67
2023/12/28 09:00:02;;;;;;;8.82;4.55;;;;;;;9.17;87.56;99493.69;5062559;28;20024;-68
2023/12/28 09:02:28;;;;;;;8.15;4.38;;;;;;;9.17;88.56;99485.09;5082110;28;20036;-67
2023/12/28 09:04:56;;;;;;;10.07;4.45;;;;;;;9.18;88.78;99484.13;5080272;28;20020;-68
2023/12/28 09:07:24;;;;;;;8.88;4.88;;;;;;;9.23;88.54;99495.81;5080308;28;20028;-67
2023/12/28 09:09:49;;;;;;;8.45;4.57;;;;;;;9.28;88.53;99505.88;5069614;28;20034;-66
2023/12/28 09:12:15;;;;;;;10.45;5.18;;;;;;;9.28;87.94;99502.47;5078665;28;20040;-67
2023/12/28 09:14:40;;;;;;;11.32;5.65;;;;;;;9.29;87.51;99502.34;5078814;28;21053;-67
2023/12/28 09:17:08;;;;;;;9.15;4.78;;;;;;;9.26;87.03;99499.16;5074574;28;20557;-66
2023/12/28 09:19:36;;;;;;;7.72;4.22;;;;;;;9.21;87.60;99508.09;5085175;28;20031;-67
2023/12/28 09:22:01;;;;;;;9.57;4.28;;;;;;;9.26;87.42;99493.97;5064492;28;20120;-67
2023/12/28 09:24:26;;;;;;;8.35;3.75;;;;;;;9.21;88.77;99512.47;5065060;28;20060;-67
2023/12/28 09:26:54;;;;;;;8.73;4.28;;;;;;;9.21;88.19;99512.47;5079128;28;20027;-67
2023/12/28 09:29:20;;;;;;;7.95;4.18;;;;;;;9.24;88.66;99518.25;5069901;28;20080;-68
2023/12/28 09:31:45;;;;;;;8.30;4.15;;;;;;;9.22;89.14;99530.53;5082814;28;20054;-67
2023/12/28 09:34:11;;;;;;;7.63;4.10;;;;;;;9.17;90.02;99521.44;5064096;28;20042;-67
2023/12/28 09:36:36;;;;;;;9.50;4.53;;;;;;;9.15;90.92;99525.91;5086429;28;20415;-67
2023/12/28 09:39:02;;;;;;;8.35;4.30;;;;;;;9.03;91.59;99531.06;5077609;28;20109;-67
2023/12/28 09:41:30;;;;;;;11.63;4.13;;;;;;;8.98;91.63;99514.16;5066867;28;20498;-66
2023/12/28 09:44:14;;;;;;;6.93;4.03;;;;;;;9.20;91.03;99544.56;5078202;28;20035;-66
2023/12/28 09:46:44;;;;;;;11.32;4.30;;;;;;;9.15;93.34;99539.69;5052677;28;20027;-68
2023/12/28 09:49:14;;;;;;;10.60;4.25;;;;;;;8.83;94.19;99491.00;5060348;28;20759;-67
2023/12/28 09:51:39;;;;;;;;;;;;;;;9.26;94.45;99533.72;5078228;28;20031;-68
2023/12/28 09:54:04;;;;;;;10.50;4.63;;;;;;;9.24;94.26;99526.03;5078492;28;19915;-68
2023/12/28 09:56:33;;;;;;;7.35;4.13;;;;;;;9.21;94.40;99523.66;5078135;28;20039;-69
2023/12/28 09:59:01;;;;;;;6.82;4.25;;;;;;;9.30;94.84;99527.34;5069609;28;20059;-68
2023/12/28 10:01:26;;;;;;;7.65;4.28;;;;;;;9.31;94.67;99529.03;5076532;28;20024;-67
2023/12/28 10:03:56;;;;;;;8.75;4.45;;;;;;;9.34;94.43;99520.97;5077655;28;20027;-67
2023/12/28 10:06:22;;;;;;;8.25;4.22;;;;;;;9.38;92.34;99516.38;5078996;28;20364;-67
2023/12/28 10:08:48;;;;;;;7.85;4.30;;;;;;;9.37;91.70;99515.56;5078542;28;20052;-67
2023/12/28 10:11:20;;;;;;;7.72;4.30;;;;;;;9.46;91.69;99519.25;5075971;28;20437;-66
2023/12/28 10:13:48;;;;;;;9.70;4.80;;;;;;;9.33;91.34;99475.22;5079392;28;20028;-67
2023/12/28 10:16:15;;;;;;;8.30;5.10;;;;;;;9.65;90.88;99503.09;5075880;28;20130;-67
2023/12/28 10:18:46;;;;;;;9.00;4.88;;;;;;;9.40;89.94;99471.22;5064256;28;20020;-67
2023/12/28 10:21:12;;;;;;;8.93;4.88;;;;;;;9.53;90.04;99499.69;5069152;28;20032;-67
2023/12/28 10:23:43;;;;;;;8.27;4.70;;;;;;;9.56;87.09;99491.63;5067478;28;20056;-68
2023/12/28 10:26:08;;;;;;;7.95;4.13;;;;;;;9.38;87.14;99493.03;5089033;28;20032;-67
2023/12/28 10:28:38;;;;;;;8.30;3.92;;;;;;;9.40;86.78;99504.13;5075199;28;20035;-68
2023/12/28 10:31:04;;;;;;;8.75;4.22;;;;;;;9.28;85.58;99497.28;5073852;28;20043;-68
2023/12/28 10:33:35;;;;;;;7.43;3.85;;;;;;;9.25;85.03;99487.94;5082711;28;20080;-67
2023/12/28 10:36:06;;;;;;;8.73;4.30;;;;;;;9.29;85.69;99486.78;5089946;28;20186;-67
2023/12/28 10:38:36;;;;;;;7.72;3.97;;;;;;;9.37;85.87;99494.00;5086063;28;20710;-68
2023/12/28 10:41:03;;;;;;;;;;;;;;;9.31;84.91;99499.63;5080109;28;20024;-69
2023/12/28 10:43:31;;;;;;;7.57;4.10;;;;;;;9.36;85.02;99487.13;5074563;28;20360;-68
2023/12/28 10:45:57;;;;;;;6.65;4.18;;;;;;;9.15;85.41;99453.25;5071880;28;20035;-66
2023/12/28 10:48:30;;;;;;;7.78;4.10;;;;;;;9.43;86.16;99480.53;5083311;28;20024;-68
2023/12/28 10:50:59;;;;;;;6.40;3.65;;;;;;;9.41;85.90;99466.84;5089628;28;20164;-68
2023/12/28 10:53:25;;;;;;;;;;;;;;;9.35;86.88;99470.75;5092927;28;20032;-68
2023/12/28 10:56:02;;;;;;;8.47;4.00;;;;;;;9.23;88.81;99463.88;5088135;28;19962;-69
2023/12/28 10:58:37;;;;;;;6.88;4.05;;;;;;;9.30;92.34;99465.06;5090028;27;20847;-68
2023/12/28 11:01:05;;;;;;;7.10;3.80;;;;;;;9.13;93.51;99421.41;5080293;28;20020;-68
2023/12/28 11:03:35;;;;;;;7.30;3.95;;;;;;;9.37;94.81;99463.66;5083866;28;20092;-68
2023/12/28 11:06:05;;;;;;;7.05;3.80;;;;;;;9.26;93.69;99458.47;5076918;28;20027;-68
2023/12/28 11:08:32;;;;;;;6.22;3.67;;;;;;;9.21;91.32;99457.97;5081877;28;20063;-68
2023/12/28 11:11:04;;;;;;;8.43;4.10;;;;;;;8.89;91.95;99419.72;5092458;28;20284;-69
2023/12/28 11:13:30;;;;;;;7.90;3.38;;;;;;;9.28;91.20;99455.75;5090236;28;20035;-68
2023/12/28 11:15:56;;;;;;;7.72;3.90;;;;;;;9.13;90.72;99439.56;5086487;28;20024;-67
2023/12/28 11:18:23;;;;;;;7.47;3.83;;;;;;;9.17;90.59;99447.00;5074800;28;20103;-67
2023/12/28 11:20:49;;;;;;;8.13;3.65;;;;;;;9.21;89.28;99445.81;5074190;28;20490;-69
2023/12/28 11:23:15;;;;;;;6.40;3.70;;;;;;;9.25;91.13;99436.03;5076554;28;20380;-68
2023/12/28 11:25:45;;;;;;;7.35;3.92;;;;;;;9.12;90.20;99423.16;5074406;28;20797;-67
2023/12/28 11:28:11;;;;;;;7.93;3.90;;;;;;;9.14;90.96;99436.84;5086511;28;20028;-69
2023/12/28 11:30:38;;;;;;;7.40;3.42;;;;;;;8.89;90.67;99385.16;5088815;28;20020;-68
2023/12/28 11:33:10;;;;;;;7.35;3.70;;;;;;;9.15;90.85;99433.31;5081603;27;20042;-68